WetterOnline ( http://www.wetteronline.de )

Wetter aktuell Winterberg

Aktuelles Wetter: Kahler Asten (841m)

6-stündlich | Neueste Meldungen
Ortszeit Temperatur Wetter
Sa, 23.02. 19:00 1.5° C wolkenlos
Sa, 23.02. 13:00 3.6° C leicht bewölkt
Sa, 23.02. 7:00 -3.2° C Nebel
Sa, 23.02. 1:00 0.5° C Nebel
Fr, 22.02. 19:00 3.0° C bewölkt
Fr, 22.02. 13:00 4.4° C bedeckt
Fr, 22.02. 7:00 3.7° C Sprühregen
Fr, 22.02. 1:00 4.4° C Sprühregen
Ortszeit Temperatur Wetter
Sa, 23.02. 22:00 1.6° C wolkig
Sa, 23.02. 21:50 1.6° C wolkig
Sa, 23.02. 21:40 1.7° C wolkig
Sa, 23.02. 21:30 1.6° C leicht bewölkt
Sa, 23.02. 21:20 1.6° C leicht bewölkt
Sa, 23.02. 21:10 1.6° C leicht bewölkt
Sa, 23.02. 21:00 1.5° C fast wolkenlos
Sa, 23.02. 20:30 1.5° C fast wolkenlos
Sa, 23.02. 20:00 1.3° C bewölkt
Sa, 23.02. 19:30 1.3° C fast wolkenlos
Sa, 23.02. 19:00 1.5° C wolkenlos
Ortszeit Relative Feuchte Sichtweite
Sa, 23.02. 19:00 61% 22 km
Sa, 23.02. 13:00 43% 14 km
Sa, 23.02. 7:00 95% <100 m
Sa, 23.02. 1:00 96% <100 m
Fr, 22.02. 19:00 95% 5.0 km
Fr, 22.02. 13:00 89% 14 km
Fr, 22.02. 7:00 97% <100 m
Fr, 22.02. 1:00 97% 100 m
Ortszeit Relative Feuchte Sichtweite
Sa, 23.02. 22:00 52% 35 km
Sa, 23.02. 21:50 52% -
Sa, 23.02. 21:40 52% -
Sa, 23.02. 21:30 50% 30 km
Sa, 23.02. 21:20 50% -
Sa, 23.02. 21:10 51% -
Sa, 23.02. 21:00 56% 27 km
Sa, 23.02. 20:30 57% 27 km
Sa, 23.02. 20:00 62% 23 km
Sa, 23.02. 19:30 64% 21 km
Sa, 23.02. 19:00 61% 22 km
Ortszeit Niederschlagsmenge Niederschlagsart
Sa, 23.02. 19:00 0.0 l/m2 in 12 Std. -
Sa, 23.02. 13:00 0.0 l/m2 in 6 Std. -
Sa, 23.02. 7:00 0.0 l/m2 in 12 Std. -
Sa, 23.02. 1:00 0.0 l/m2 in 6 Std. -
Fr, 22.02. 19:00 0.1 l/m2 in 12 Std. Sprühregen
Fr, 22.02. 13:00 0.1 l/m2 in 6 Std. Sprühregen
Fr, 22.02. 7:00 1 l/m2 in 12 Std. Regen
Fr, 22.02. 1:00 0.3 l/m2 in 6 Std. Regen
Ortszeit Niederschlagsmenge Niederschlagsart
Sa, 23.02. 22:00 0.0 l/m2 in 1 Std. -
Sa, 23.02. 21:50 keine Meldung -
Sa, 23.02. 21:40 keine Meldung -
Sa, 23.02. 21:30 0.0 l/m2 in 1 Std. -
Sa, 23.02. 21:20 keine Meldung -
Sa, 23.02. 21:10 keine Meldung -
Sa, 23.02. 21:00 0.0 l/m2 in 1 Std. -
Sa, 23.02. 20:30 0.0 l/m2 in 1 Std. -
Sa, 23.02. 20:00 0.0 l/m2 in 1 Std. -
Sa, 23.02. 19:30 0.0 l/m2 in 1 Std. -
Sa, 23.02. 19:00 0.0 l/m2 in 1 Std. -
Ortszeit Stärke Spitze Richtung
km/h Bft. km/h Grad Sektor
Sa, 23.02. 19:00 22 4 29 140° SO
Sa, 23.02. 13:00 14 3 36 150° SO
Sa, 23.02. 7:00 24 4 48 150° SO
Sa, 23.02. 1:00 14 3 32 110° O
Fr, 22.02. 19:00 13 3 24 90° O
Fr, 22.02. 13:00 14 3 36 20° N
Fr, 22.02. 7:00 20 4 43 360° N
Fr, 22.02. 1:00 22 4 43 300° NW
Ortszeit Stärke Spitze Richtung
km/h Bft. km/h Grad Sektor
Sa, 23.02. 22:00 18 3 25 150° SO
Sa, 23.02. 21:50 18 3 - 150° SO
Sa, 23.02. 21:40 20 4 - 150° SO
Sa, 23.02. 21:30 22 4 25 150° SO
Sa, 23.02. 21:20 22 4 - 150° SO
Sa, 23.02. 21:10 22 4 - 150° SO
Sa, 23.02. 21:00 22 4 36 150° SO
Sa, 23.02. 20:30 26 4 35 150° SO
Sa, 23.02. 20:00 25 4 32 140° SO
Sa, 23.02. 19:30 22 4 28 140° SO
Sa, 23.02. 19:00 22 4 29 140° SO
Ortszeit Untergrenze Bedeckung Gattung
total tief tief mittel hoch
Sa, 23.02. 19:00 - 0/8 0/8 - - -
Sa, 23.02. 13:00 8700 m 7/8 0/8 - - -
Sa, 23.02. 7:00 - 8/8 - - - -
Sa, 23.02. 1:00 30 m 8/8 8/8 - - -
Fr, 22.02. 19:00 60 m 7/8 7/8 - - -
Fr, 22.02. 13:00 240 m 8/8 8/8 - - -
Fr, 22.02. 7:00 <30 m 7/8 0/8 - - -
Fr, 22.02. 1:00 30 m 8/8 8/8 - - -
Ortszeit Bedeckungsgrad in Achtel und Wolkenuntergrenze
Sa, 23.02. 22:00 8(9000m) 8(9000m) 8(9000m)
Sa, 23.02. 21:50 8(9000m) 8(9000m) 8(9000m)
Sa, 23.02. 21:40 8(9000m) 8(9000m) 8(9000m)
Sa, 23.02. 21:30 2(8700m) 5(9000m) 6(10500m)
Sa, 23.02. 21:20 2(8700m) 5(9000m) 6(10500m)
Sa, 23.02. 21:10 2(8700m) 4(10500m)
Sa, 23.02. 21:00 1(7800m) 1(9000m)
Sa, 23.02. 20:30 1(6900m)
Sa, 23.02. 20:00 1(6000m) 7(6900m)
Sa, 23.02. 19:30 1(7200m) 4(7200m)
Sa, 23.02. 19:00 keine Wolken
Ortszeit Stationsdruck (hPa) Tendenz (hPa in 3 Std.)
Sa, 23.02. 19:00 936 + 0,3
Sa, 23.02. 13:00 936 + 0,3
Sa, 23.02. 7:00 935 + 0,2
Sa, 23.02. 1:00 936 + 0,5
Fr, 22.02. 19:00 935 + 0,5
Fr, 22.02. 13:00 934 + 1,3
Fr, 22.02. 7:00 930 + 1,3
Fr, 22.02. 1:00 928 + 0,5
Ortszeit Stationsdruck (hPa) Tendenz (hPa in 3 Std.)
Sa, 23.02. 22:00 936 - 0,1
Sa, 23.02. 21:50 936 keine Meldung
Sa, 23.02. 21:40 936 keine Meldung
Sa, 23.02. 21:30 936 - 0,2
Sa, 23.02. 21:20 936 keine Meldung
Sa, 23.02. 21:10 936 keine Meldung
Sa, 23.02. 21:00 936 - 0,2
Sa, 23.02. 20:30 936 - 0,2
Sa, 23.02. 20:00 936 0,0
Sa, 23.02. 19:30 936 + 0,3
Sa, 23.02. 19:00 936 + 0,3
Ortszeit Schneehöhe (cm)
Sa, 23.02. 19:00 15
Sa, 23.02. 13:00 15
Sa, 23.02. 7:00 15
Sa, 23.02. 1:00 15
Fr, 22.02. 19:00 16
Fr, 22.02. 13:00 17
Fr, 22.02. 7:00 20
Fr, 22.02. 1:00 22
Ortszeit Schneehöhe (cm)
Sa, 23.02. 22:00 14
Sa, 23.02. 21:50 14
Sa, 23.02. 21:40 14
Sa, 23.02. 21:30 14
Sa, 23.02. 21:20 14
Sa, 23.02. 21:10 15
Sa, 23.02. 21:00 15
Sa, 23.02. 20:30 15
Sa, 23.02. 20:00 15
Sa, 23.02. 19:30 15
Sa, 23.02. 19:00 15
Link zu dieser Seite / Seite empfehlen

Das Wetter in ...